• Join FlightAware (Why Join?)
  • Login
  • US Flag 
02:09PM EDT


 

Airport Tracker/Info


-or-


 

Live Flight TrackerFlight Track Log ✈ DAL6055 ✈ 08-Apr-2013 ✈ KSDF - KDTW

Flight Track Log - Related Links

Times and Time Zones

All times are in EDT time to prevent confusion due to time zone crossing. See the DAL6055 flight status page for this flight to view local times or setup timezone preferences in your user account.

Time Position Orientation Groundspeed Altitude Reporting Facility
EDT Latitude Longitude Course Direction KTS MPH feet Rate Location/Type
11:42AM 38.1586 -85.7211 166° South 150 173 1,100  Level FAA TRACON SMA TRACON (SMA)
11:42AM 38.1414 -85.7158 166° South 163 188 1,700 1,620 Climbing FAA TRACON SMA TRACON (SMA)
11:42AM 38.1256 -85.7103 165° South 184 212 2,200 1,620 Climbing FAA TRACON SMA TRACON (SMA)
11:43AM 38.1083 -85.7058 169° South 203 234 2,800 1,980 Climbing FAA TRACON SMA TRACON (SMA)
11:43AM 38.0917 -85.7125 197° South 210 242 3,500 2,520 Climbing FAA TRACON SMA TRACON (SMA)
11:43AM 38.0767 -85.7319 226° Southwest 209 241 4,500 2,520 Climbing FAA TRACON SMA TRACON (SMA)
11:44AM 38.0711 -85.7536 252° West 209 241 5,200 2,160 Climbing FAA TRACON SMA TRACON (SMA)
11:44AM 38.0667 -85.7758 256° West 209 241 6,000 2,700 Climbing FAA TRACON SMA TRACON (SMA)
11:44AM 38.0725 -85.8044 285° West 224 258 7,000 2,760 Climbing FAA TRACON SMA TRACON (SMA)
11:45AM 38.0886 -85.8189 325° Northwest 237 273 7,800 1,920 Climbing FAA TRACON SMA TRACON (SMA)
11:45AM 38.1097 -85.8244 348° North 249 287 8,300 1,800 Climbing FAA TRACON SMA TRACON (SMA)
11:45AM 38.1375 -85.8344 344° North 265 305 9,000 1,920 Climbing FAA TRACON SMA TRACON (SMA)
11:46AM 38.1606 -85.8419 346° North 278 320 9,600 1,920 Climbing FAA TRACON SMA TRACON (SMA)
11:46AM 38.1844 -85.8494 346° North 286 329 10,300 2,160 Climbing FAA TRACON SMA TRACON (SMA)
11:46AM 38.2147 -85.8578 348° North 288 331 11,100 2,220 Climbing FAA TRACON SMA TRACON (SMA)
11:47AM 38.2386 -85.8642 348° North 285 328 11,800 1,800 Climbing FAA TRACON SMA TRACON (SMA)
11:47AM 38.2633 -85.8672 354° North 287 330 12,300 1,500 Climbing FAA TRACON SMA TRACON (SMA)
11:47AM 38.2883 -85.8603 12° North 298 343 12,800 1,620 Climbing FAA TRACON SMA TRACON (SMA)
11:48AM 38.3169 -85.8381 31° Northeast 312 359 13,400 1,560 Climbing FAA TRACON SMA TRACON (SMA)
11:48AM 38.3397 -85.8194 33° Northeast 315 362 13,900 1,500 Climbing FAA TRACON SMA TRACON (SMA)
11:48AM 38.3619 -85.8011 33° Northeast 311 358 14,400 1,620 Climbing FAA TRACON SMA TRACON (SMA)
11:49AM 38.3894 -85.7778 34° Northeast 309 356 15,000 1,500 Climbing FAA TRACON SMA TRACON (SMA)
11:49AM 38.4114 -85.7589 34° Northeast 309 356 15,400 1,380 Climbing FAA TRACON SMA TRACON (SMA)
11:49AM 38.4331 -85.7406 34° Northeast 306 352 15,900 1,620 Climbing FAA TRACON SMA TRACON (SMA)
11:50AM 38.4606 -85.7172 34° Northeast 308 354 16,500 1,500 Climbing FAA TRACON SMA TRACON (SMA)
11:50AM 38.4828 -85.6992 32° Northeast 306 352 16,900 1,140 Climbing FAA TRACON SMA TRACON (SMA)
11:50AM 38.5047 -85.6808 33° Northeast 306 352 17,300 1,320 Climbing FAA TRACON SMA TRACON (SMA)
11:51AM 38.5267 -85.6619 34° Northeast 307 353 17,800 1,500 Climbing FAA TRACON SMA TRACON (SMA)
11:51AM 38.5542 -85.6392 33° Northeast 308 354 18,300 1,380 Climbing FAA TRACON SMA TRACON (SMA)
11:52AM 38.6272 -85.5792 33° Northeast 310 357 19,700 1,320 Climbing FAA TRACON SMA TRACON (SMA)
11:52AM 38.6494 -85.5600 34° Northeast 313 360 20,100 1,200 Climbing FAA TRACON SMA TRACON (SMA)
11:53AM 38.6719 -85.5408 34° Northeast 314 361 20,500 1,140 Climbing FAA TRACON SMA TRACON (SMA)
11:53AM 38.7000 -85.5178 33° Northeast 314 361 20,900 1,200 Climbing FAA TRACON SMA TRACON (SMA)
11:53AM 38.7236 -85.5000 30° Northeast 315 362 21,300 1,020 Climbing FAA TRACON SMA TRACON (SMA)
11:54AM 38.7464 -85.4794 35° Northeast 320 368 21,600 1,020 Climbing FAA TRACON SMA TRACON (SMA)
11:54AM 38.7756 -85.4561 32° Northeast 321 369 22,000 1,200 Climbing FAA TRACON SMA TRACON (SMA)
11:54AM 38.7989 -85.4372 32° Northeast 323 372 22,400 1,020 Climbing FAA TRACON SMA TRACON (SMA)
11:55AM 38.8219 -85.4164 35° Northeast 326 375 22,700 900 Climbing FAA TRACON SMA TRACON (SMA)
11:55AM 38.8517 -85.3928 32° Northeast 327 376 23,000 420 Climbing FAA TRACON SMA TRACON (SMA)
11:55AM 38.8758 -85.3728 33° Northeast 332 382 23,000  Level FAA TRACON SMA TRACON (SMA)
11:56AM 38.9000 -85.3522 34° Northeast 336 387 23,000  Level FAA TRACON SMA TRACON (SMA)
11:56AM 38.9303 -85.3275 32° Northeast 336 387 23,000  Level FAA TRACON SMA TRACON (SMA)
11:56AM 38.9542 -85.3078 33° Northeast 335 386 23,000  Level FAA TRACON SMA TRACON (SMA)
11:57AM 38.9783 -85.2872 33° Northeast 335 386 23,000  Level FAA TRACON SMA TRACON (SMA)
11:57AM 39.0086 -85.2625 32° Northeast 335 386 23,000  Level FAA TRACON SMA TRACON (SMA)
11:57AM 39.0331 -85.2428 32° Northeast 337 388 23,000  Level FAA TRACON SMA TRACON (SMA)
11:58AM 39.0567 -85.2208 36° Northeast 339 390 23,000  Level FAA TRACON SMA TRACON (SMA)
11:58AM 39.0878 -85.1964 31° Northeast 339 390 23,000  Level FAA TRACON SMA TRACON (SMA)
11:59AM 39.1394 -85.1492 35° Northeast 338 389 23,000  Level Indianapolis Center
12:00PM 39.2156 -85.0850 33° Northeast 329 379 23,000  Level Indianapolis Center
12:01PM 39.2886 -85.0233 33° Northeast 315 362 23,000  Level Indianapolis Center
12:02PM 39.3617 -84.9600 34° Northeast 314 361 23,000  Level Indianapolis Center
12:03PM 39.4364 -84.8961 33° Northeast 319 367 23,000  Level Indianapolis Center
12:04PM 39.5169 -84.8269 34° Northeast 320 368 23,000  Level Indianapolis Center
12:05PM 39.5931 -84.7625 33° Northeast 322 371 23,000  Level Indianapolis Center
12:06PM 39.6686 -84.6969 34° Northeast 323 372 23,000  Level Indianapolis Center
12:07PM 39.7458 -84.6317 33° Northeast 327 376 23,000  Level Indianapolis Center
12:08PM 39.8217 -84.5653 34° Northeast 326 375 23,000  Level Indianapolis Center
12:09PM 39.8989 -84.4986 34° Northeast 329 379 23,000  Level Indianapolis Center
12:10PM 39.9783 -84.4314 33° Northeast 335 386 23,000 -60 Level Indianapolis Center
12:11PM 40.0742 -84.3983 15° North 298 343 22,900 -300 Descending Indianapolis Center
12:12PM 40.1578 -84.4006 359° North 296 341 22,400 -780 Descending Indianapolis Center
12:13PM 40.2392 -84.4036 358° North 290 334 21,400 -720 Descending Indianapolis Center
12:14PM 40.3189 -84.4047 359° North 285 328 21,000 -240 Descending Indianapolis Center
12:15PM 40.3944 -84.4061 359° North 272 313 21,000  Level Indianapolis Center
12:16PM 40.4719 -84.4094 358° North 275 316 21,000  Level Indianapolis Center
12:17PM 40.5703 -84.4119 359° North 346 398 21,000  Level Indianapolis Center
12:18PM 40.6792 -84.4144 359° North 384 442 21,000  Level Indianapolis Center
12:19PM 40.7931 -84.4175 359° North 403 464 21,000  Level Indianapolis Center
12:20PM 40.9086 -84.4203 359° North 411 473 21,000 -240 Level Indianapolis Center
12:21PM 40.9531 -84.4214 359° North 402 463 20,700 -1,380 Descending Cleveland Center
12:22PM 41.0594 -84.4250 359° North 402 463 19,300 -1,860 Descending Cleveland Center
12:23PM 41.1531 -84.4278 359° North 369 425 17,000 -2,460 Descending Cleveland Center
12:24PM 41.2469 -84.4306 359° North 344 396 14,400 -2,220 Descending Cleveland Center
12:25PM 41.3364 -84.4331 359° North 333 383 12,600 -1,200 Descending Cleveland Center
12:26PM 41.4214 -84.3856 23° Northeast 322 371 12,000 -300 Descending Cleveland Center
12:27PM 41.5031 -84.3153 33° Northeast 322 371 12,000 -300 Level Cleveland Center
12:28PM 41.5714 -84.2611 31° Northeast 334 384 11,500 -540 Descending Cleveland Center
12:29PM 41.6658 -84.1803 33° Northeast 342 394 11,000 -300 Descending Cleveland Center
12:30PM 41.7431 -84.1122 33° Northeast 326 375 11,000  Level Cleveland Center
12:31PM 41.8136 -84.0519 32° Northeast 334 384 11,000  Level Cleveland Center
12:32PM 41.8772 -83.9522 49° Northeast 334 384 11,000  Level Cleveland Center
12:33PM 41.9383 -83.8550 50° Northeast 334 384 11,000  Level Cleveland Center
12:34PM 42.0056 -83.7633 45° Northeast 334 384 11,000  Level Cleveland Center
12:35PM 42.0833 -83.6581 45° Northeast 335 386 11,000  Level Cleveland Center
12:35PM 42.1272 -83.5944 47° Northeast 339 390 11,000  Level FAA TRACON SMA TRACON (SMA)
12:36PM 42.1475 -83.5664 46° Northeast 340 391 11,000  Level FAA TRACON SMA TRACON (SMA)
12:36PM 42.1725 -83.5447 33° Northeast 342 394 11,000  Level FAA TRACON SMA TRACON (SMA)
12:36PM 42.2028 -83.5217 29° Northeast 320 368 11,000  Level FAA TRACON SMA TRACON (SMA)
12:37PM 42.2231 -83.5056 30° Northeast 300 345 11,000 -600 Level FAA TRACON SMA TRACON (SMA)
12:37PM 42.2475 -83.4861 30° Northeast 297 342 10,600 -1,320 Descending FAA TRACON SMA TRACON (SMA)
12:37PM 42.2753 -83.4650 29° Northeast 300 345 10,100 -1,080 Descending FAA TRACON SMA TRACON (SMA)
12:38PM 42.2972 -83.4481 30° Northeast 297 342 9,900 -480 Descending FAA TRACON SMA TRACON (SMA)
12:38PM 42.3156 -83.4347 28° Northeast 274 315 9,800 -900 Descending FAA TRACON SMA TRACON (SMA)
12:39PM 42.3606 -83.4017 28° Northeast 250 288 9,000 -1,440 Descending FAA TRACON SMA TRACON (SMA)
12:39PM 42.3850 -83.3875 23° Northeast 246 283 8,400 -1,680 Descending FAA TRACON SMA TRACON (SMA)
12:39PM 42.4044 -83.3761 23° Northeast 247 284 7,900 -1,380 Descending FAA TRACON SMA TRACON (SMA)
12:40PM 42.4236 -83.3647 24° Northeast 246 283 7,500 -1,200 Descending FAA TRACON SMA TRACON (SMA)
12:40PM 42.4475 -83.3514 22° Northeast 241 277 7,100 -1,200 Descending FAA TRACON SMA TRACON (SMA)
12:40PM 42.4667 -83.3414 21° North 241 277 6,700 -1,200 Descending FAA TRACON SMA TRACON (SMA)
12:41PM 42.4856 -83.3308 22° Northeast 240 276 6,300 -1,200 Descending FAA TRACON SMA TRACON (SMA)
12:41PM 42.5092 -83.3175 23° Northeast 240 276 5,900 -1,080 Descending FAA TRACON SMA TRACON (SMA)
12:41PM 42.5281 -83.3069 22° Northeast 238 274 5,600 -1,080 Descending FAA TRACON SMA TRACON (SMA)
12:42PM 42.5464 -83.2967 22° Northeast 236 272 5,200 -1,200 Descending FAA TRACON SMA TRACON (SMA)
12:42PM 42.5653 -83.2778 36° Northeast 224 258 4,800 -1,200 Descending FAA TRACON SMA TRACON (SMA)
12:42PM 42.5678 -83.2553 81° East 184 212 4,400 -1,080 Descending FAA TRACON SMA TRACON (SMA)
12:43PM 42.5636 -83.2336 105° East 196 226 4,100 -600 Descending FAA TRACON SMA TRACON (SMA)
12:43PM 42.5594 -83.2064 102° East 191 220 4,000 -180 Descending FAA TRACON SMA TRACON (SMA)
12:43PM 42.5561 -83.1878 104° East 184 212 4,000 120 Level FAA TRACON SMA TRACON (SMA)
12:44PM 42.5433 -83.1758 145° Southeast 153 176 4,100  Climbing FAA TRACON SMA TRACON (SMA)
12:44PM 42.5328 -83.1767 183° South 152 175 4,000 -180 Descending FAA TRACON SMA TRACON (SMA)
12:44PM 42.5164 -83.1731 171° South 147 169 4,000  Level FAA TRACON SMA TRACON (SMA)
12:45PM 42.5019 -83.1692 169° South 146 168 4,000  Level FAA TRACON SMA TRACON (SMA)